AIRPORT METAR

METAR FOR LGLM
ADDS - METARS form results

(1429 UTC 08 August 2022)
Data provider http://aviationweather.gov/metar/data/
 
METAR text: LGLM 081420Z 03012G22KT 9999 FEW020 31/19 Q1009
Conditions at: LGLM (LIMNOS ISLAND AR, GR) observed 1420 UTC 08 August 2022
Temperature: 31.0°C (88°F)
Dewpoint: 19.0°C (66°F) [RH = 49%]
Pressure (altimeter): 29.79 inches Hg (1009.0 mb)
Winds: from the NNE (30 degrees) at 14 MPH (12 knots; 6.2 m/s)
gusting to 25 MPH (22 knots; 11.3 m/s)
Visibility: 6 or more miles (10+ km)
Ceiling: at least 12,000 feet AGL
Clouds: few clouds at 2000 feet AGL
Weather: no significant weather observed at this time

METAR text: LGLM 081350Z 04011G21KT 9999 FEW020 31/19 Q1009
Conditions at: LGLM (LIMNOS ISLAND AR, GR) observed 1350 UTC 08 August 2022
Temperature: 31.0°C (88°F)
Dewpoint: 19.0°C (66°F) [RH = 49%]
Pressure (altimeter): 29.79 inches Hg (1009.0 mb)
Winds: from the NE (40 degrees) at 13 MPH (11 knots; 5.7 m/s)
gusting to 24 MPH (21 knots; 10.8 m/s)
Visibility: 6 or more miles (10+ km)
Ceiling: at least 12,000 feet AGL
Clouds: few clouds at 2000 feet AGL
Weather: no significant weather observed at this time

Forecast for: LGLM (LIMNOS ISLAND AR, GR)
Text: TAF LGLM 081400Z 0815/0824 04015G25KT 9999 FEW020
Forecast period: 1500 UTC 08 August 2022 to 0000 UTC 09 August 2022
Forecast type: FROM: standard forecast or significant change
Winds: from the NE (40 degrees) at 17 MPH (15 knots; 7.7 m/s)
gusting to 29 MPH (25 knots; 12.9 m/s)
Visibility: 6 or more miles (10+ km)
Ceiling: at least 12,000 feet AGL
Clouds: few clouds at 2000 feet AGL
Weather: no significant weather forecast for this period

AIRPORT MAP

 RUNWAY INFORMATION
Runway 04R Runway length 9895 ft Runway width 148 ft
Runway elevation 13 ft Runway displaced threshold 0 ft Runway heading 43
Runway 22L Runway length 9895 ft Runway width 148 ft
Runway elevation 13 ft Runway displaced threshold 0 ft Runway heading 223

 AIRPORT FREQUENCIES
Type A/G Name RDO Frequency 563.7 MHZ
Type APP Name APP Frequency 122.1 MHZ
Type TWR Name TWR Frequency 122.1 MHZ

 AIRPORT NEAR NAVIGATION AIDS
Type NDB Name Limnos Frequency 429 KHZ
Type TACAN Name Limnos Frequency 114800 KHZ
Type VOR-DME Name Limnos Frequency 109200 KHZ



© 2022 - Royal Sky Service, All Right Reserved.